Time;durP1;ratioP1;P1;durP2;ratioP2;P2;SDS_P1;SDS_P2;PMS_P1;PMS_P2;Temp;Humidity;BMP_temperature;BMP_pressure;BME280_temperature;BME280_humidity;BME280_pressure;Samples;Min_cycle;Max_cycle;Signal;HPM_P1;HPM_P2
2023/01/30 00:01:36;;;;;;;18.13;3.30;;;;;;;-146.73;100.00;56421.06;6182570;23;20024;-92
2023/01/30 00:04:01;;;;;;;19.67;2.88;;;;;;;-146.73;100.00;56421.06;6208708;23;20505;-92
2023/01/30 00:06:27;;;;;;;20.58;3.53;;;;;;;-146.73;100.00;56421.06;6181391;23;20036;-92
2023/01/30 00:08:52;;;;;;;23.73;2.85;;;;;;;-146.73;100.00;56421.06;6182114;23;20009;-92
2023/01/30 00:11:19;;;;;;;23.27;3.67;;;;;;;-146.73;100.00;56421.06;6182231;23;20721;-92
2023/01/30 00:13:46;;;;;;;17.60;2.80;;;;;;;-146.73;100.00;56421.06;6207729;23;20397;-92
2023/01/30 00:16:11;;;;;;;18.38;2.38;;;;;;;-146.73;100.00;56421.06;6180489;23;20517;-91
2023/01/30 00:18:39;;;;;;;17.08;2.60;;;;;;;-146.73;100.00;56421.06;6181103;23;20008;-92
2023/01/30 00:21:07;;;;;;;25.40;3.78;;;;;;;-146.73;100.00;56421.06;6181448;23;20016;-93
2023/01/30 00:23:34;;;;;;;17.08;2.83;;;;;;;-146.73;100.00;56421.06;6208048;23;20015;-92
2023/01/30 00:26:01;;;;;;;19.65;2.83;;;;;;;-146.73;100.00;56421.06;6182359;23;20009;-92
2023/01/30 00:28:26;;;;;;;27.52;3.42;;;;;;;-146.73;100.00;56421.06;6182283;23;20028;-93
2023/01/30 00:30:54;;;;;;;17.42;2.28;;;;;;;-146.73;100.00;56421.06;6180789;23;20019;-91
2023/01/30 00:33:22;;;;;;;16.77;3.20;;;;;;;-146.73;100.00;56421.06;6182584;23;20020;-91
2023/01/30 00:35:49;;;;;;;17.00;2.95;;;;;;;-146.73;100.00;56421.06;6179912;23;20011;-92
2023/01/30 00:38:15;;;;;;;20.83;2.60;;;;;;;-146.73;100.00;56421.06;6181602;23;20012;-93
2023/01/30 00:40:41;;;;;;;19.25;2.75;;;;;;;-146.73;100.00;56421.06;6181987;23;20498;-92
2023/01/30 00:48:40;;;;;;;18.95;2.90;;;;;;;-146.73;100.00;56421.06;6207666;23;20465;-93
2023/01/30 00:51:05;;;;;;;20.80;3.13;;;;;;;-146.73;100.00;56421.06;6208014;23;20012;-92
2023/01/30 00:53:30;;;;;;;14.07;2.63;;;;;;;-146.73;100.00;56421.06;6181038;23;20008;-92
2023/01/30 00:55:56;;;;;;;22.23;3.15;;;;;;;-146.73;100.00;56421.06;6208660;23;20020;-92
2023/01/30 00:58:23;;;;;;;14.98;2.50;;;;;;;-146.73;100.00;56421.06;6181794;23;20583;-90
2023/01/30 01:00:49;;;;;;;18.00;2.80;;;;;;;-146.73;100.00;56421.06;6180548;23;20020;-90
2023/01/30 01:03:14;;;;;;;15.52;2.92;;;;;;;-146.73;100.00;56421.06;6176344;23;20025;-91
2023/01/30 01:05:41;;;;;;;19.23;2.65;;;;;;;-146.73;100.00;56421.06;6175990;23;20116;-92
2023/01/30 01:08:07;;;;;;;15.52;3.00;;;;;;;-146.73;100.00;56421.06;6176754;23;20336;-92
2023/01/30 01:10:32;;;;;;;18.40;2.83;;;;;;;-146.73;100.00;56421.06;6177403;23;20053;-92
2023/01/30 01:12:58;;;;;;;17.60;2.92;;;;;;;-146.73;100.00;56421.06;6177801;23;20473;-91
2023/01/30 01:15:27;;;;;;;19.17;3.33;;;;;;;-146.73;100.00;56421.06;6175984;23;20518;-91
2023/01/30 01:17:53;;;;;;;18.10;2.58;;;;;;;-146.73;100.00;56421.06;6172982;23;20008;-91
2023/01/30 01:20:20;;;;;;;17.33;2.30;;;;;;;-146.73;100.00;56421.06;6176702;23;20481;-92
2023/01/30 01:22:49;;;;;;;13.80;2.25;;;;;;;-146.73;100.00;56421.06;6175466;23;20017;-92
2023/01/30 01:25:15;;;;;;;14.70;2.15;;;;;;;-146.73;100.00;56421.06;6176442;23;20052;-92
2023/01/30 01:27:41;;;;;;;14.48;2.10;;;;;;;-146.73;100.00;56421.06;6175346;23;20104;-92
2023/01/30 01:30:07;;;;;;;10.85;2.20;;;;;;;-146.73;100.00;56421.06;6177118;23;20717;-93
2023/01/30 01:32:33;;;;;;;14.32;2.20;;;;;;;-146.73;100.00;56421.06;6176917;23;20009;-92
2023/01/30 01:34:58;;;;;;;14.85;2.15;;;;;;;-146.73;100.00;56421.06;6177250;23;20035;-91
2023/01/30 01:37:24;;;;;;;12.27;2.25;;;;;;;-146.73;100.00;56421.06;6179140;23;20011;-92
2023/01/30 01:42:36;;;;;;;13.50;2.05;;;;;;;-146.73;100.00;56421.06;6179283;23;20023;-91
2023/01/30 01:45:02;;;;;;;16.55;2.30;;;;;;;-146.73;100.00;56421.06;6179321;23;20087;-92
2023/01/30 01:47:30;;;;;;;13.63;2.00;;;;;;;-146.73;100.00;56421.06;6177762;23;20346;-92
2023/01/30 01:49:55;;;;;;;13.85;2.15;;;;;;;-146.73;100.00;56421.06;6178186;23;20021;-92
2023/01/30 01:52:22;;;;;;;14.50;2.00;;;;;;;-146.73;100.00;56421.06;6178643;23;20382;-92
2023/01/30 01:55:01;;;;;;;15.15;2.10;;;;;;;-146.73;100.00;56421.06;6178157;23;20430;-92
2023/01/30 01:57:32;;;;;;;12.02;2.15;;;;;;;-146.73;100.00;56421.06;6179580;23;20083;-92
2023/01/30 02:00:11;;;;;;;12.75;2.00;;;;;;;-146.73;100.00;56421.06;6177991;23;20005;-89
2023/01/30 02:02:40;;;;;;;15.70;2.00;;;;;;;-146.73;100.00;56421.06;6179267;23;20058;-90
2023/01/30 02:05:09;;;;;;;20.90;3.20;;;;;;;-146.73;100.00;56421.06;6182278;23;20043;-90
2023/01/30 02:07:46;;;;;;;12.18;2.17;;;;;;;-146.73;100.00;56421.06;6182056;23;20016;-91
2023/01/30 02:10:22;;;;;;;10.82;2.10;;;;;;;-146.73;100.00;56421.06;6181473;23;20461;-90
2023/01/30 02:12:49;;;;;;;11.02;2.20;;;;;;;-146.73;100.00;56421.06;6182158;23;20016;-90
2023/01/30 02:15:16;;;;;;;15.77;3.00;;;;;;;-146.73;100.00;56421.06;6181787;23;20008;-91
2023/01/30 02:17:43;;;;;;;14.57;2.03;;;;;;;-146.73;100.00;56421.06;6181615;23;20008;-90
2023/01/30 02:20:46;;;;;;;13.48;2.53;;;;;;;-146.73;100.00;56421.06;6209244;23;20079;-89
2023/01/30 02:23:36;;;;;;;16.45;2.50;;;;;;;-146.73;100.00;56421.06;6180802;23;20342;-91
2023/01/30 02:26:20;;;;;;;11.80;2.10;;;;;;;-146.73;100.00;56421.06;6181442;23;20016;-91
2023/01/30 02:29:34;;;;;;;13.50;2.20;;;;;;;-146.73;100.00;56421.06;6181418;23;20027;-91
2023/01/30 02:32:18;;;;;;;15.43;2.17;;;;;;;-146.73;100.00;56421.06;6172936;23;20028;-91
2023/01/30 02:35:21;;;;;;;16.38;2.33;;;;;;;-146.73;100.00;56421.06;6207959;23;20005;-91
2023/01/30 02:38:11;;;;;;;14.13;2.33;;;;;;;-146.73;100.00;56421.06;6182465;23;20011;-91
2023/01/30 02:40:57;;;;;;;17.88;2.25;;;;;;;-146.73;100.00;56421.06;6182918;23;20462;-91
2023/01/30 02:43:38;;;;;;;10.82;1.90;;;;;;;-146.73;100.00;56421.06;6180715;23;20501;-91
2023/01/30 02:46:10;;;;;;;17.33;2.53;;;;;;;-146.73;100.00;56421.06;6181862;23;20025;-91
2023/01/30 02:48:51;;;;;;;13.15;2.55;;;;;;;-146.73;100.00;56421.06;6182618;23;20079;-91
2023/01/30 02:51:28;;;;;;;13.77;2.05;;;;;;;-146.73;100.00;56421.06;6182309;23;20099;-91
2023/01/30 02:53:54;;;;;;;14.75;2.25;;;;;;;-146.73;100.00;56421.06;6181778;23;20017;-92
2023/01/30 02:56:22;;;;;;;17.05;2.45;;;;;;;-146.73;100.00;56421.06;6208414;23;20087;-91
2023/01/30 02:58:52;;;;;;;17.05;2.72;;;;;;;-146.73;100.00;56421.06;6180423;23;20020;-93
2023/01/30 03:04:01;;;;;;;16.33;2.30;;;;;;;-146.73;100.00;56421.06;6175543;22;20358;-91
2023/01/30 03:06:33;;;;;;;14.90;2.45;;;;;;;-146.73;100.00;56421.06;6175521;23;20088;-90
2023/01/30 03:09:06;;;;;;;14.82;2.47;;;;;;;-146.73;100.00;56421.06;6175970;23;20017;-91
2023/01/30 03:12:02;;;;;;;18.33;2.60;;;;;;;-146.73;100.00;56421.06;6177474;23;20462;-90
2023/01/30 03:14:34;;;;;;;17.35;2.38;;;;;;;-146.73;100.00;56421.06;6179144;23;20013;-90
2023/01/30 03:17:04;;;;;;;14.50;2.22;;;;;;;-146.73;100.00;56421.06;6178371;23;20099;-90
2023/01/30 03:19:29;;;;;;;18.73;2.63;;;;;;;-146.73;100.00;56421.06;6177848;23;20009;-91
2023/01/30 03:21:55;;;;;;;12.55;1.80;;;;;;;-146.73;100.00;56421.06;6177177;23;20024;-90
2023/01/30 03:24:20;;;;;;;14.32;2.45;;;;;;;-146.73;100.00;56421.06;6179382;23;20458;-91
2023/01/30 03:27:03;;;;;;;15.77;3.35;;;;;;;-146.73;100.00;56421.06;6176308;23;20004;-90
2023/01/30 03:29:28;;;;;;;18.08;2.50;;;;;;;-146.73;100.00;56421.06;6177334;23;20047;-90
2023/01/30 03:31:54;;;;;;;16.02;2.35;;;;;;;-146.73;100.00;56421.06;6176345;23;20434;-89
2023/01/30 03:34:19;;;;;;;17.38;2.00;;;;;;;-146.73;100.00;56421.06;6174154;23;20799;-90
2023/01/30 03:36:46;;;;;;;13.48;1.70;;;;;;;-146.73;100.00;56421.06;6178257;23;20092;-90
2023/01/30 03:39:11;;;;;;;13.10;1.92;;;;;;;-146.73;100.00;56421.06;6176414;23;20798;-90
2023/01/30 03:41:37;;;;;;;11.52;2.05;;;;;;;-146.73;100.00;56421.06;6177834;23;20001;-91
2023/01/30 03:44:03;;;;;;;11.90;2.10;;;;;;;-146.73;100.00;56421.06;6176878;23;20005;-91
2023/01/30 03:46:28;;;;;;;20.73;2.15;;;;;;;-146.73;100.00;56421.06;6177414;23;20164;-91
2023/01/30 03:48:53;;;;;;;18.63;2.80;;;;;;;-146.73;100.00;56421.06;6176796;23;20017;-90
2023/01/30 03:51:19;;;;;;;14.20;2.20;;;;;;;-146.73;100.00;56421.06;6177479;23;20005;-91
2023/01/30 03:53:44;;;;;;;15.18;2.25;;;;;;;-146.73;100.00;56421.06;6176788;23;20025;-90
2023/01/30 03:56:10;;;;;;;17.13;2.88;;;;;;;-146.73;100.00;56421.06;6176670;23;20001;-92
2023/01/30 03:58:35;;;;;;;15.63;2.67;;;;;;;-146.73;100.00;56421.06;6174237;23;20004;-92
2023/01/30 04:01:01;;;;;;;20.67;2.92;;;;;;;-146.73;100.00;56421.06;6176785;23;20009;-91
2023/01/30 04:03:26;;;;;;;20.88;2.90;;;;;;;-146.73;100.00;56421.06;6177066;23;20025;-91
2023/01/30 04:05:52;;;;;;;18.55;2.47;;;;;;;-146.73;100.00;56421.06;6173203;23;20020;-90
2023/01/30 04:08:17;;;;;;;17.42;2.58;;;;;;;-146.73;100.00;56421.06;6175281;23;20036;-90
2023/01/30 04:10:43;;;;;;;14.32;2.58;;;;;;;-146.73;100.00;56421.06;6174645;23;20009;-91
2023/01/30 04:13:08;;;;;;;13.65;2.28;;;;;;;-146.73;100.00;56421.06;6176368;23;19997;-90
2023/01/30 04:15:33;;;;;;;18.77;2.55;;;;;;;-146.73;100.00;56421.06;6175283;23;20052;-90
2023/01/30 04:17:59;;;;;;;15.95;2.42;;;;;;;-146.73;100.00;56421.06;6174543;23;20029;-90
2023/01/30 04:20:24;;;;;;;17.38;2.60;;;;;;;-146.73;100.00;56421.06;6176085;23;20064;-91
2023/01/30 07:06:35;;;;;;;16.27;2.33;;;;;;;-146.73;100.00;56421.06;6158251;23;20103;-91
2023/01/30 07:09:01;;;;;;;16.73;2.83;;;;;;;-146.73;100.00;56421.06;6174529;23;20036;-91
2023/01/30 07:11:27;;;;;;;24.30;2.67;;;;;;;-146.73;100.00;56421.06;6176344;23;20004;-92
2023/01/30 07:13:53;;;;;;;19.60;2.15;;;;;;;-146.73;100.00;56421.06;6173918;23;20441;-90
2023/01/30 07:16:18;;;;;;;17.45;2.65;;;;;;;-146.73;100.00;56421.06;6170839;23;20013;-89
2023/01/30 07:18:43;;;;;;;14.73;2.55;;;;;;;-146.73;100.00;56421.06;6172015;23;20096;-91
2023/01/30 07:21:09;;;;;;;14.85;2.90;;;;;;;-146.73;100.00;56421.06;6175124;23;20434;-92
2023/01/30 07:23:35;;;;;;;14.27;2.33;;;;;;;-146.73;100.00;56421.06;6173503;23;20012;-91
2023/01/30 07:26:04;;;;;;;11.23;1.88;;;;;;;-146.73;100.00;56421.06;6175189;23;20013;-92
2023/01/30 07:28:30;;;;;;;15.55;2.95;;;;;;;-146.73;100.00;56421.06;6177134;23;20012;-90
2023/01/30 07:30:59;;;;;;;15.27;2.38;;;;;;;-146.73;100.00;56421.06;6176446;23;20017;-89
2023/01/30 07:33:25;;;;;;;19.38;3.05;;;;;;;-146.73;100.00;56421.06;6175322;23;20429;-90
2023/01/30 07:35:50;;;;;;;12.27;2.20;;;;;;;-146.73;100.00;56421.06;6178208;23;20007;-90
2023/01/30 07:38:16;;;;;;;17.42;2.45;;;;;;;-146.73;100.00;56421.06;6175416;23;20923;-90
2023/01/30 07:40:42;;;;;;;20.90;2.67;;;;;;;-146.73;100.00;56421.06;6180417;23;20096;-93
2023/01/30 07:43:10;;;;;;;20.48;2.80;;;;;;;-146.73;100.00;56421.06;6184832;23;20013;-92
2023/01/30 07:45:39;;;;;;;12.93;2.25;;;;;;;-146.73;100.00;56421.06;6183144;23;20013;-93
2023/01/30 07:48:06;;;;;;;17.30;2.60;;;;;;;-146.73;100.00;56421.06;6181885;23;20039;-93
2023/01/30 07:50:32;;;;;;;19.85;2.45;;;;;;;-146.73;100.00;56421.06;6182279;23;20005;-94
2023/01/30 07:52:58;;;;;;;22.30;3.38;;;;;;;-146.73;100.00;56421.06;6183492;23;20013;-94
2023/01/30 07:55:24;;;;;;;13.05;2.60;;;;;;;-146.73;100.00;56421.06;6182549;23;20035;-94
2023/01/30 07:57:49;;;;;;;16.60;3.25;;;;;;;-146.73;100.00;56421.06;6182727;23;20056;-93
2023/01/30 08:00:15;;;;;;;16.55;2.25;;;;;;;-146.73;100.00;56421.06;6183916;23;20052;-91
2023/01/30 08:02:41;;;;;;;19.85;4.10;;;;;;;-146.73;100.00;56421.06;6183655;23;20013;-92
2023/01/30 08:05:07;;;;;;;19.30;2.40;;;;;;;-146.73;100.00;56421.06;6181510;23;20498;-92
2023/01/30 08:07:32;;;;;;;23.15;2.88;;;;;;;-146.73;100.00;56421.06;6184452;23;20092;-93
2023/01/30 08:10:00;;;;;;;16.55;2.38;;;;;;;-146.73;100.00;56421.06;6183970;23;20033;-92
2023/01/30 08:12:26;;;;;;;16.35;2.65;;;;;;;-146.73;100.00;56421.06;6184380;23;20005;-92
2023/01/30 08:14:54;;;;;;;21.95;2.65;;;;;;;-146.73;100.00;56421.06;6185557;23;20013;-92
2023/01/30 08:17:20;;;;;;;13.35;2.53;;;;;;;-146.73;100.00;56421.06;6185386;23;20013;-92
2023/01/30 08:19:45;;;;;;;19.20;3.55;;;;;;;-146.73;100.00;56421.06;6186926;23;20076;-93
2023/01/30 08:22:11;;;;;;;11.82;2.90;;;;;;;-146.73;100.00;56421.06;6183621;23;20001;-93
2023/01/30 08:24:37;;;;;;;21.00;2.83;;;;;;;-146.73;100.00;56421.06;6182242;23;20016;-94
2023/01/30 08:27:03;;;;;;;14.35;2.20;;;;;;;-146.73;100.00;56421.06;6182991;23;20017;-93
2023/01/30 08:29:29;;;;;;;24.60;2.70;;;;;;;-146.73;100.00;56421.06;6184399;23;20028;-93
2023/01/30 08:31:58;;;;;;;26.33;3.20;;;;;;;-146.73;100.00;56421.06;6181825;23;20431;-93
2023/01/30 08:34:25;;;;;;;16.52;2.45;;;;;;;-146.73;100.00;56421.06;6181160;23;20013;-93
2023/01/30 08:36:50;;;;;;;21.50;3.05;;;;;;;-146.73;100.00;56421.06;6181554;23;20469;-93
2023/01/30 08:39:16;;;;;;;18.50;2.53;;;;;;;-146.73;100.00;56421.06;6178001;23;20013;-94
2023/01/30 08:41:42;;;;;;;20.40;3.03;;;;;;;-146.73;100.00;56421.06;6178066;23;20001;-93
2023/01/30 08:44:08;;;;;;;19.17;2.47;;;;;;;-146.73;100.00;56421.06;6176953;23;20012;-93
2023/01/30 08:46:34;;;;;;;26.10;3.10;;;;;;;-146.73;100.00;56421.06;6176599;23;20016;-93
2023/01/30 08:48:59;;;;;;;18.83;3.47;;;;;;;-146.73;100.00;56421.06;6176540;23;20115;-93
2023/01/30 08:51:25;;;;;;;18.48;3.30;;;;;;;-146.73;100.00;56421.06;6177012;23;20031;-94
2023/01/30 08:53:50;;;;;;;18.77;2.90;;;;;;;-146.73;100.00;56421.06;6175669;23;20741;-93
2023/01/30 08:56:16;;;;;;;22.05;3.45;;;;;;;-146.73;100.00;56421.06;6177996;23;20379;-94
2023/01/30 08:58:44;;;;;;;20.45;2.90;;;;;;;-146.73;100.00;56421.06;6178066;23;20307;-93
2023/01/30 09:01:10;;;;;;;20.20;2.90;;;;;;;-146.73;100.00;56421.06;6180154;23;20012;-93
2023/01/30 09:03:35;;;;;;;22.63;3.00;;;;;;;-146.73;100.00;56421.06;6180831;23;20017;-94
2023/01/30 09:06:01;;;;;;;19.10;2.83;;;;;;;-146.73;100.00;56421.06;6178821;23;20036;-94
2023/01/30 09:08:26;;;;;;;23.27;3.22;;;;;;;-146.73;100.00;56421.06;6178316;23;20378;-92
2023/01/30 09:10:52;;;;;;;25.75;3.20;;;;;;;-146.73;100.00;56421.06;6178486;23;20047;-93
2023/01/30 09:13:18;;;;;;;16.50;2.70;;;;;;;-146.73;100.00;56421.06;6176786;23;20096;-93
2023/01/30 09:15:44;;;;;;;20.40;2.70;;;;;;;-146.73;100.00;56421.06;6179407;23;20009;-92
2023/01/30 09:18:09;;;;;;;24.20;3.22;;;;;;;-146.73;100.00;56421.06;6181743;23;20699;-93
2023/01/30 09:20:35;;;;;;;19.52;3.20;;;;;;;-146.73;100.00;56421.06;6179746;23;20016;-94
2023/01/30 09:23:02;;;;;;;20.08;2.78;;;;;;;-146.73;100.00;56421.06;6177547;23;20004;-93
2023/01/30 09:25:28;;;;;;;20.95;4.13;;;;;;;-146.73;100.00;56421.06;6179505;23;20013;-93
2023/01/30 09:27:53;;;;;;;17.33;3.17;;;;;;;-146.73;100.00;56421.06;6183541;23;20060;-94
2023/01/30 09:30:19;;;;;;;17.80;2.78;;;;;;;-146.73;100.00;56421.06;6182025;23;20039;-93
2023/01/30 09:32:45;;;;;;;26.25;3.33;;;;;;;-146.73;100.00;56421.06;6182826;23;20012;-93
2023/01/30 09:35:10;;;;;;;13.98;2.75;;;;;;;-146.73;100.00;56421.06;6180863;23;20057;-94
2023/01/30 09:37:36;;;;;;;25.05;3.75;;;;;;;-146.73;100.00;56421.06;6181864;23;20013;-92
2023/01/30 09:40:01;;;;;;;18.15;2.80;;;;;;;-146.73;100.00;56421.06;6181066;23;20442;-94
2023/01/30 09:42:44;;;;;;;23.42;3.15;;;;;;;-146.73;100.00;56421.06;6180692;23;20009;-93
2023/01/30 09:45:21;;;;;;;16.58;3.85;;;;;;;-146.73;100.00;56421.06;6181106;23;20024;-93
2023/01/30 09:48:26;;;;;;;14.13;2.80;;;;;;;-146.73;100.00;56421.06;6182857;23;20001;-94
2023/01/30 09:51:25;;;;;;;17.27;2.85;;;;;;;-146.73;100.00;56421.06;6177794;23;20092;-93
2023/01/30 09:54:02;;;;;;;16.63;3.30;;;;;;;-146.73;100.00;56421.06;6151244;23;20012;-93
2023/01/30 09:56:28;;;;;;;21.70;3.00;;;;;;;-146.73;100.00;56421.06;6182537;23;20052;-94
2023/01/30 09:59:00;;;;;;;25.05;3.65;;;;;;;-146.73;100.00;56421.06;6183909;23;20009;-93
2023/01/30 10:01:57;;;;;;;24.63;2.90;;;;;;;-146.73;100.00;56421.06;6181814;23;20095;-92
2023/01/30 10:04:40;;;;;;;18.42;3.17;;;;;;;-146.73;100.00;56421.06;6183607;23;20005;-93
2023/01/30 10:07:12;;;;;;;14.90;2.78;;;;;;;-146.73;100.00;56421.06;6182326;23;20649;-94
2023/01/30 10:09:49;;;;;;;17.77;3.15;;;;;;;-146.73;100.00;56421.06;6182458;23;20052;-92
2023/01/30 10:12:34;;;;;;;17.38;3.00;;;;;;;-146.73;100.00;56421.06;6183212;23;20005;-93
2023/01/30 10:15:09;;;;;;;21.60;3.03;;;;;;;-146.73;100.00;56421.06;6181575;23;20005;-93
2023/01/30 10:17:44;;;;;;;14.00;2.80;;;;;;;-146.73;100.00;56421.06;6184453;23;20013;-92
2023/01/30 10:20:47;;;;;;;14.80;2.63;;;;;;;-146.73;100.00;56421.06;6182532;23;20460;-93
2023/01/30 10:23:35;;;;;;;22.67;2.65;;;;;;;-146.73;100.00;56421.06;6183426;23;20028;-92
2023/01/30 10:26:10;;;;;;;17.70;2.60;;;;;;;-146.73;100.00;56421.06;6182256;23;20115;-93
2023/01/30 10:28:58;;;;;;;17.42;2.63;;;;;;;-146.73;100.00;56421.06;6182247;23;20105;-93
2023/01/30 10:31:27;;;;;;;13.52;2.55;;;;;;;-146.73;100.00;56421.06;6182541;23;20017;-94
2023/01/30 10:34:05;;;;;;;15.68;3.05;;;;;;;-146.73;100.00;56421.06;6184065;23;20009;-94
2023/01/30 10:36:47;;;;;;;18.08;3.55;;;;;;;-146.73;100.00;56421.06;6182371;23;20017;-92
2023/01/30 10:39:30;;;;;;;20.17;2.80;;;;;;;-146.73;100.00;56421.06;6181591;23;20005;-93
2023/01/30 10:42:13;;;;;;;19.83;2.78;;;;;;;-146.73;100.00;56421.06;6182615;23;20310;-93
2023/01/30 10:44:42;;;;;;;16.98;2.78;;;;;;;-146.73;100.00;56421.06;6181910;23;20009;-94
2023/01/30 10:47:51;;;;;;;24.50;2.72;;;;;;;-146.73;100.00;56421.06;6183376;23;20013;-94
2023/01/30 10:50:20;;;;;;;21.58;2.90;;;;;;;-146.73;100.00;56421.06;6181492;23;20016;-93
2023/01/30 10:53:05;;;;;;;18.35;2.22;;;;;;;-146.73;100.00;56421.06;6182750;23;20348;-92
2023/01/30 10:55:38;;;;;;;19.40;2.75;;;;;;;-146.73;100.00;56421.06;6181541;23;20017;-93
2023/01/30 10:58:32;;;;;;;21.45;3.22;;;;;;;-146.73;100.00;56421.06;6179649;23;20041;-94
2023/01/30 11:01:08;;;;;;;21.25;2.95;;;;;;;-146.73;100.00;56421.06;6181901;23;19993;-92
2023/01/30 11:03:55;;;;;;;19.85;3.10;;;;;;;-146.73;100.00;56421.06;6181654;23;20013;-92
2023/01/30 11:06:25;;;;;;;17.85;3.33;;;;;;;-146.73;100.00;56421.06;6181180;23;20017;-93
2023/01/30 11:08:53;;;;;;;18.95;3.47;;;;;;;-146.73;100.00;56421.06;6181329;23;20032;-93
2023/01/30 11:11:23;;;;;;;20.33;3.33;;;;;;;-146.73;100.00;56421.06;6181859;23;20053;-93
2023/01/30 11:13:48;;;;;;;24.55;3.58;;;;;;;-146.73;100.00;56421.06;6183447;23;20009;-92
2023/01/30 11:16:14;;;;;;;22.73;3.83;;;;;;;-146.73;100.00;56421.06;6183111;23;20327;-93
2023/01/30 11:18:46;;;;;;;20.08;3.15;;;;;;;-146.73;100.00;56421.06;6182740;23;20075;-94
2023/01/30 11:21:25;;;;;;;17.23;3.40;;;;;;;-146.73;100.00;56421.06;6181698;23;20012;-93
2023/01/30 11:23:50;;;;;;;21.73;3.60;;;;;;;-146.73;100.00;56421.06;6182507;23;20477;-92
2023/01/30 11:26:31;;;;;;;16.35;2.92;;;;;;;-146.73;100.00;56421.06;6182805;23;20009;-93
2023/01/30 11:28:57;;;;;;;19.33;2.83;;;;;;;-146.73;100.00;56421.06;6181763;23;20825;-93
2023/01/30 11:31:28;;;;;;;12.65;2.38;;;;;;;-146.73;100.00;56421.06;6183163;23;20005;-93
2023/01/30 11:34:14;;;;;;;19.70;3.00;;;;;;;-146.73;100.00;56421.06;6177603;23;20025;-91
2023/01/30 11:36:40;;;;;;;19.13;3.03;;;;;;;-146.73;100.00;56421.06;6180441;23;19997;-92
2023/01/30 11:39:12;;;;;;;22.65;2.80;;;;;;;-146.73;100.00;56421.06;6181246;23;20013;-93
2023/01/30 11:42:00;;;;;;;19.95;3.55;;;;;;;-146.73;100.00;56421.06;6180056;23;20021;-92
2023/01/30 11:44:40;;;;;;;19.17;2.60;;;;;;;-146.73;100.00;56421.06;6180546;23;20012;-93
2023/01/30 11:47:12;;;;;;;17.88;3.25;;;;;;;-146.73;100.00;56421.06;6178511;23;20020;-91
2023/01/30 11:49:45;;;;;;;14.48;2.28;;;;;;;-146.73;100.00;56421.06;6181459;23;20079;-92
2023/01/30 11:52:11;;;;;;;16.92;2.70;;;;;;;-146.73;100.00;56421.06;6181463;23;20016;-93
2023/01/30 11:54:41;;;;;;;22.25;3.35;;;;;;;-146.73;100.00;56421.06;6181836;23;20008;-92
2023/01/30 11:57:15;;;;;;;20.02;3.13;;;;;;;-146.73;100.00;56421.06;6180399;23;20009;-92
2023/01/30 11:59:52;;;;;;;16.23;3.42;;;;;;;-146.73;100.00;56421.06;6180842;23;20016;-92
2023/01/30 12:02:29;;;;;;;15.52;2.42;;;;;;;-146.73;100.00;56421.06;6181502;23;20427;-92
2023/01/30 12:05:11;;;;;;;22.42;2.88;;;;;;;-146.73;100.00;56421.06;6181161;23;20040;-93
2023/01/30 12:07:38;;;;;;;17.80;2.40;;;;;;;-146.73;100.00;56421.06;6179794;23;20031;-92
2023/01/30 12:10:47;;;;;;;47.00;5.85;;;;;;;-146.73;100.00;56421.06;6179307;23;20013;-93
2023/01/30 12:13:34;;;;;;;18.02;3.10;;;;;;;-146.73;100.00;56421.06;6162724;23;20087;-94
2023/01/30 12:16:14;;;;;;;17.35;2.92;;;;;;;-146.73;100.00;56421.06;6182294;23;20276;-95
2023/01/30 12:19:13;;;;;;;16.75;2.63;;;;;;;-146.73;100.00;56421.06;6182319;23;20005;-94
2023/01/30 12:21:38;;;;;;;19.67;2.70;;;;;;;-146.73;100.00;56421.06;6180307;23;20442;-92
2023/01/30 12:24:43;;;;;;;14.68;3.17;;;;;;;-146.73;100.00;56421.06;6178338;23;20048;-92
2023/01/30 12:27:18;;;;;;;17.13;2.80;;;;;;;-146.73;100.00;56421.06;6170804;23;20017;-94
2023/01/30 12:30:00;;;;;;;15.80;2.65;;;;;;;-146.73;100.00;56421.06;6184226;23;20013;-95
2023/01/30 12:32:29;;;;;;;18.60;3.10;;;;;;;-146.73;100.00;56421.06;6186221;23;20013;-94
2023/01/30 12:34:55;;;;;;;21.70;2.88;;;;;;;-146.73;100.00;56421.06;6183763;23;20138;-94
2023/01/30 12:37:34;;;;;;;15.70;2.63;;;;;;;-146.73;100.00;56421.06;6184547;23;20024;-96
2023/01/30 12:40:06;;;;;;;17.40;3.28;;;;;;;-146.73;100.00;56421.06;6183620;23;20332;-95
2023/01/30 12:42:57;;;;;;;27.50;3.20;;;;;;;-146.73;100.00;56421.06;6183539;23;20021;-94
2023/01/30 12:45:31;;;;;;;15.68;2.50;;;;;;;-146.73;100.00;56421.06;6181633;23;20263;-93
2023/01/30 12:48:18;;;;;;;19.00;3.28;;;;;;;-146.73;100.00;56421.06;6178235;23;20120;-93
2023/01/30 12:51:04;;;;;;;18.63;3.55;;;;;;;-146.73;100.00;56421.06;6177357;23;20016;-93
2023/01/30 12:53:51;;;;;;;20.60;2.65;;;;;;;-146.73;100.00;56421.06;6181393;23;20092;-93
2023/01/30 12:56:32;;;;;;;18.58;2.85;;;;;;;-146.73;100.00;56421.06;6181682;23;20009;-92
2023/01/30 12:59:33;;;;;;;18.80;2.78;;;;;;;-146.73;100.00;56421.06;6182044;23;20013;-94
2023/01/30 13:02:33;;;;;;;16.48;2.83;;;;;;;-146.73;100.00;56421.06;6180853;23;20040;-94
2023/01/30 13:05:42;;;;;;;17.90;2.55;;;;;;;-146.73;100.00;56421.06;6180545;23;20013;-94
2023/01/30 13:08:41;;;;;;;18.88;2.58;;;;;;;-146.73;100.00;56421.06;6182738;23;20167;-94
2023/01/30 13:11:27;;;;;;;19.13;2.65;;;;;;;-146.73;100.00;56421.06;6180075;23;20005;-94
2023/01/30 13:14:44;;;;;;;17.90;3.60;;;;;;;-146.73;100.00;56421.06;6182225;23;20756;-93
2023/01/30 13:17:30;;;;;;;24.70;4.60;;;;;;;-146.73;100.00;56421.06;6127198;23;20465;-94
2023/01/30 13:20:01;;;;;;;19.15;2.70;;;;;;;-146.73;100.00;56421.06;6126111;23;20084;-93
2023/01/30 13:22:46;;;;;;;18.65;2.75;;;;;;;-146.73;100.00;56421.06;6123736;23;20021;-93
2023/01/30 13:25:58;;;;;;;20.27;2.92;;;;;;;-146.73;100.00;56421.06;6149971;23;20010;-94
2023/01/30 13:28:35;;;;;;;15.60;2.50;;;;;;;-146.73;100.00;56421.06;6127300;23;20025;-93
2023/01/30 13:31:11;;;;;;;18.77;2.88;;;;;;;-146.73;100.00;56421.06;6151425;23;20014;-92
2023/01/30 13:33:40;;;;;;;15.38;2.80;;;;;;;-146.73;100.00;56421.06;6125679;23;20009;-91
2023/01/30 13:36:41;;;;;;;15.30;2.40;;;;;;;-146.73;100.00;56421.06;6127225;23;20016;-94
2023/01/30 13:39:22;;;;;;;18.73;2.60;;;;;;;-146.73;100.00;56421.06;6153069;23;20494;-95
2023/01/30 13:41:56;;;;;;;17.10;2.92;;;;;;;-146.73;100.00;56421.06;6152876;23;20009;-94
2023/01/30 13:44:30;;;;;;;16.85;2.70;;;;;;;-146.73;100.00;56421.06;6151647;23;20064;-94
2023/01/30 13:46:58;;;;;;;18.05;2.83;;;;;;;-146.73;100.00;56421.06;6127855;23;20032;-93
2023/01/30 13:49:43;;;;;;;16.58;3.30;;;;;;;-146.73;100.00;56421.06;6127084;23;20515;-94
2023/01/30 13:52:22;;;;;;;15.25;2.85;;;;;;;-146.73;100.00;56421.06;6182272;23;20016;-94
2023/01/30 13:55:13;;;;;;;19.85;2.53;;;;;;;-146.73;100.00;56421.06;6184364;23;20347;-93
2023/01/30 13:57:48;;;;;;;20.20;3.03;;;;;;;-146.73;100.00;56421.06;6181250;23;20020;-95
2023/01/30 14:00:32;;;;;;;16.77;2.75;;;;;;;-146.73;100.00;56421.06;6182726;23;20009;-93
2023/01/30 14:03:06;;;;;;;18.80;3.03;;;;;;;-146.73;100.00;56421.06;6183097;23;20460;-93
2023/01/30 14:05:50;;;;;;;16.20;2.42;;;;;;;-146.73;100.00;56421.06;6182240;23;20029;-94
2023/01/30 14:08:25;;;;;;;22.52;3.05;;;;;;;-146.73;100.00;56421.06;6183309;23;20012;-93
2023/01/30 14:10:56;;;;;;;21.13;3.17;;;;;;;-146.73;100.00;56421.06;6181583;23;20021;-95
2023/01/30 14:13:24;;;;;;;18.42;3.00;;;;;;;-146.73;100.00;56421.06;6182175;23;20051;-93
2023/01/30 14:16:03;;;;;;;17.80;2.85;;;;;;;-146.73;100.00;56421.06;6182560;23;20029;-94
2023/01/30 14:18:34;;;;;;;12.98;2.45;;;;;;;-146.73;100.00;56421.06;6183312;23;20013;-93
2023/01/30 14:21:19;;;;;;;16.80;3.05;;;;;;;-146.73;100.00;56421.06;6181520;23;20504;-94
2023/01/30 14:24:01;;;;;;;11.60;2.63;;;;;;;-146.73;100.00;56421.06;6181742;23;20009;-95